sensor_id;sensor_type;location;lat;lon;timestamp;P1;durP1;ratioP1;P2;durP2;ratioP2
2362;SDS011;1192;51.664;7.626;2022-08-19T00:00:04;1031.47;;;942.80;;
2362;SDS011;1192;51.664;7.626;2022-08-19T00:02:33;1036.13;;;947.22;;
2362;SDS011;1192;51.664;7.626;2022-08-19T00:05:00;1026.47;;;937.85;;
2362;SDS011;1192;51.664;7.626;2022-08-19T00:07:27;1025.22;;;936.90;;
2362;SDS011;1192;51.664;7.626;2022-08-19T00:09:54;1042.63;;;953.47;;
2362;SDS011;1192;51.664;7.626;2022-08-19T00:12:21;1043.28;;;953.90;;
2362;SDS011;1192;51.664;7.626;2022-08-19T00:14:49;1039.45;;;950.17;;
2362;SDS011;1192;51.664;7.626;2022-08-19T00:17:16;1029.93;;;941.15;;
2362;SDS011;1192;51.664;7.626;2022-08-19T00:19:42;1039.78;;;950.70;;
2362;SDS011;1192;51.664;7.626;2022-08-19T00:22:09;1036.57;;;947.63;;
2362;SDS011;1192;51.664;7.626;2022-08-19T00:24:36;1034.85;;;945.80;;
2362;SDS011;1192;51.664;7.626;2022-08-19T00:27:03;1041.05;;;951.92;;
2362;SDS011;1192;51.664;7.626;2022-08-19T00:29:30;1025.70;;;937.33;;
2362;SDS011;1192;51.664;7.626;2022-08-19T00:31:59;1025.13;;;936.60;;
2362;SDS011;1192;51.664;7.626;2022-08-19T00:34:25;1024.28;;;935.70;;
2362;SDS011;1192;51.664;7.626;2022-08-19T00:36:53;1024.45;;;936.03;;
2362;SDS011;1192;51.664;7.626;2022-08-19T00:39:21;1025.10;;;936.55;;
2362;SDS011;1192;51.664;7.626;2022-08-19T00:41:48;1023.75;;;935.22;;
2362;SDS011;1192;51.664;7.626;2022-08-19T00:44:17;1035.82;;;946.85;;
2362;SDS011;1192;51.664;7.626;2022-08-19T00:46:46;1032.70;;;943.72;;
2362;SDS011;1192;51.664;7.626;2022-08-19T00:49:17;1023.28;;;934.45;;
2362;SDS011;1192;51.664;7.626;2022-08-19T00:51:47;1029.78;;;941.15;;
2362;SDS011;1192;51.664;7.626;2022-08-19T00:54:19;1028.13;;;939.42;;
2362;SDS011;1192;51.664;7.626;2022-08-19T00:56:47;1028.72;;;940.00;;
2362;SDS011;1192;51.664;7.626;2022-08-19T00:59:15;1017.15;;;928.85;;
2362;SDS011;1192;51.664;7.626;2022-08-19T01:01:44;1030.82;;;941.67;;
2362;SDS011;1192;51.664;7.626;2022-08-19T01:04:11;1015.22;;;927.20;;
2362;SDS011;1192;51.664;7.626;2022-08-19T01:06:40;1022.17;;;933.65;;
2362;SDS011;1192;51.664;7.626;2022-08-19T01:09:07;1023.67;;;935.20;;
2362;SDS011;1192;51.664;7.626;2022-08-19T01:11:38;1014.35;;;926.10;;
2362;SDS011;1192;51.664;7.626;2022-08-19T01:14:08;1008.40;;;920.47;;
2362;SDS011;1192;51.664;7.626;2022-08-19T01:16:36;1014.17;;;925.95;;
2362;SDS011;1192;51.664;7.626;2022-08-19T01:19:06;1020.88;;;932.30;;
2362;SDS011;1192;51.664;7.626;2022-08-19T01:21:41;1013.78;;;925.35;;
2362;SDS011;1192;51.664;7.626;2022-08-19T01:24:17;1021.60;;;933.03;;
2362;SDS011;1192;51.664;7.626;2022-08-19T01:26:44;1020.15;;;931.90;;
2362;SDS011;1192;51.664;7.626;2022-08-19T01:29:13;1016.75;;;928.63;;
2362;SDS011;1192;51.664;7.626;2022-08-19T01:31:39;1017.45;;;929.17;;
2362;SDS011;1192;51.664;7.626;2022-08-19T01:34:07;1029.18;;;940.17;;
2362;SDS011;1192;51.664;7.626;2022-08-19T01:36:35;1016.15;;;927.78;;
2362;SDS011;1192;51.664;7.626;2022-08-19T01:39:06;1004.83;;;916.80;;
2362;SDS011;1192;51.664;7.626;2022-08-19T01:41:37;1024.72;;;935.95;;
2362;SDS011;1192;51.664;7.626;2022-08-19T01:44:05;1016.55;;;928.13;;
2362;SDS011;1192;51.664;7.626;2022-08-19T01:46:33;1019.97;;;931.50;;
2362;SDS011;1192;51.664;7.626;2022-08-19T01:49:01;1008.25;;;919.97;;
2362;SDS011;1192;51.664;7.626;2022-08-19T01:51:29;1007.92;;;919.83;;
2362;SDS011;1192;51.664;7.626;2022-08-19T01:53:56;1007.30;;;919.33;;
2362;SDS011;1192;51.664;7.626;2022-08-19T01:56:24;1025.40;;;936.65;;
2362;SDS011;1192;51.664;7.626;2022-08-19T01:58:53;1005.83;;;917.75;;
2362;SDS011;1192;51.664;7.626;2022-08-19T02:01:21;999.70;;;912.05;;
2362;SDS011;1192;51.664;7.626;2022-08-19T02:03:48;1002.03;;;913.97;;
2362;SDS011;1192;51.664;7.626;2022-08-19T02:06:16;1012.90;;;924.67;;
2362;SDS011;1192;51.664;7.626;2022-08-19T02:08:43;1003.47;;;915.28;;
2362;SDS011;1192;51.664;7.626;2022-08-19T02:11:18;1012.03;;;923.30;;
2362;SDS011;1192;51.664;7.626;2022-08-19T02:13:46;1010.28;;;921.85;;
2362;SDS011;1192;51.664;7.626;2022-08-19T02:16:15;1014.85;;;926.53;;
2362;SDS011;1192;51.664;7.626;2022-08-19T02:18:43;1009.75;;;921.42;;
2362;SDS011;1192;51.664;7.626;2022-08-19T02:21:10;1003.60;;;915.58;;
2362;SDS011;1192;51.664;7.626;2022-08-19T02:23:37;1011.33;;;923.08;;
2362;SDS011;1192;51.664;7.626;2022-08-19T02:26:04;1009.25;;;920.95;;
2362;SDS011;1192;51.664;7.626;2022-08-19T02:28:31;1007.45;;;919.25;;
2362;SDS011;1192;51.664;7.626;2022-08-19T02:30:58;998.58;;;910.60;;
2362;SDS011;1192;51.664;7.626;2022-08-19T02:33:29;1009.53;;;921.30;;
2362;SDS011;1192;51.664;7.626;2022-08-19T02:35:56;1011.28;;;922.97;;
2362;SDS011;1192;51.664;7.626;2022-08-19T02:38:22;1018.22;;;929.58;;
2362;SDS011;1192;51.664;7.626;2022-08-19T02:40:52;1012.83;;;924.35;;
2362;SDS011;1192;51.664;7.626;2022-08-19T02:43:21;1012.90;;;924.33;;
2362;SDS011;1192;51.664;7.626;2022-08-19T02:45:48;999.47;;;911.42;;
2362;SDS011;1192;51.664;7.626;2022-08-19T02:48:16;992.63;;;905.17;;
2362;SDS011;1192;51.664;7.626;2022-08-19T02:50:46;995.35;;;907.63;;
2362;SDS011;1192;51.664;7.626;2022-08-19T02:53:16;1007.72;;;919.53;;
2362;SDS011;1192;51.664;7.626;2022-08-19T02:55:43;995.28;;;907.63;;
2362;SDS011;1192;51.664;7.626;2022-08-19T02:58:12;1006.75;;;918.53;;
2362;SDS011;1192;51.664;7.626;2022-08-19T03:00:42;1007.15;;;919.17;;
2362;SDS011;1192;51.664;7.626;2022-08-19T03:03:10;996.15;;;908.38;;
2362;SDS011;1192;51.664;7.626;2022-08-19T03:05:37;1007.78;;;919.75;;
2362;SDS011;1192;51.664;7.626;2022-08-19T03:08:06;1003.22;;;915.10;;
2362;SDS011;1192;51.664;7.626;2022-08-19T03:10:39;1000.05;;;912.22;;
2362;SDS011;1192;51.664;7.626;2022-08-19T03:13:07;996.92;;;909.03;;
2362;SDS011;1192;51.664;7.626;2022-08-19T03:15:33;1005.70;;;917.63;;
2362;SDS011;1192;51.664;7.626;2022-08-19T03:18:00;989.72;;;902.08;;
2362;SDS011;1192;51.664;7.626;2022-08-19T03:20:27;992.85;;;904.83;;
2362;SDS011;1192;51.664;7.626;2022-08-19T03:22:53;992.38;;;904.60;;
2362;SDS011;1192;51.664;7.626;2022-08-19T03:25:22;988.15;;;900.55;;
2362;SDS011;1192;51.664;7.626;2022-08-19T03:27:48;1002.30;;;914.30;;
2362;SDS011;1192;51.664;7.626;2022-08-19T03:30:15;1004.50;;;916.03;;
2362;SDS011;1192;51.664;7.626;2022-08-19T03:32:42;997.88;;;909.78;;
2362;SDS011;1192;51.664;7.626;2022-08-19T03:35:09;996.95;;;908.95;;
2362;SDS011;1192;51.664;7.626;2022-08-19T03:37:36;990.67;;;902.85;;
2362;SDS011;1192;51.664;7.626;2022-08-19T03:40:02;992.95;;;905.25;;
2362;SDS011;1192;51.664;7.626;2022-08-19T03:42:31;987.03;;;899.33;;
2362;SDS011;1192;51.664;7.626;2022-08-19T03:44:58;999.42;;;911.45;;
2362;SDS011;1192;51.664;7.626;2022-08-19T03:47:25;997.17;;;909.22;;
2362;SDS011;1192;51.664;7.626;2022-08-19T03:49:51;995.15;;;907.13;;
2362;SDS011;1192;51.664;7.626;2022-08-19T03:52:18;986.42;;;898.85;;
2362;SDS011;1192;51.664;7.626;2022-08-19T03:54:45;981.15;;;893.55;;
2362;SDS011;1192;51.664;7.626;2022-08-19T03:57:12;987.20;;;899.85;;
2362;SDS011;1192;51.664;7.626;2022-08-19T03:59:40;993.20;;;905.42;;
2362;SDS011;1192;51.664;7.626;2022-08-19T04:02:08;993.55;;;905.70;;
2362;SDS011;1192;51.664;7.626;2022-08-19T04:04:36;988.75;;;900.95;;
2362;SDS011;1192;51.664;7.626;2022-08-19T04:07:04;992.97;;;905.22;;
2362;SDS011;1192;51.664;7.626;2022-08-19T04:09:32;1001.60;;;912.92;;
2362;SDS011;1192;51.664;7.626;2022-08-19T04:12:01;993.67;;;905.95;;
2362;SDS011;1192;51.664;7.626;2022-08-19T04:14:30;979.78;;;892.30;;
2362;SDS011;1192;51.664;7.626;2022-08-19T04:17:00;985.60;;;897.78;;
2362;SDS011;1192;51.664;7.626;2022-08-19T04:19:28;981.47;;;894.22;;
2362;SDS011;1192;51.664;7.626;2022-08-19T04:21:56;1000.42;;;912.45;;
2362;SDS011;1192;51.664;7.626;2022-08-19T04:24:23;981.72;;;894.05;;
2362;SDS011;1192;51.664;7.626;2022-08-19T04:26:50;982.80;;;895.03;;
2362;SDS011;1192;51.664;7.626;2022-08-19T04:29:18;972.30;;;884.97;;
2362;SDS011;1192;51.664;7.626;2022-08-19T04:31:46;985.90;;;898.28;;
2362;SDS011;1192;51.664;7.626;2022-08-19T04:34:16;983.58;;;895.97;;
2362;SDS011;1192;51.664;7.626;2022-08-19T04:36:47;981.05;;;893.38;;
2362;SDS011;1192;51.664;7.626;2022-08-19T04:39:16;986.05;;;898.45;;
2362;SDS011;1192;51.664;7.626;2022-08-19T04:41:44;989.10;;;901.42;;
2362;SDS011;1192;51.664;7.626;2022-08-19T04:44:29;998.08;;;910.30;;
2362;SDS011;1192;51.664;7.626;2022-08-19T04:46:56;988.28;;;900.45;;
2362;SDS011;1192;51.664;7.626;2022-08-19T04:49:25;983.10;;;895.72;;
2362;SDS011;1192;51.664;7.626;2022-08-19T04:51:52;991.65;;;903.78;;
2362;SDS011;1192;51.664;7.626;2022-08-19T04:54:20;973.85;;;886.63;;
2362;SDS011;1192;51.664;7.626;2022-08-19T04:56:50;984.78;;;897.17;;
2362;SDS011;1192;51.664;7.626;2022-08-19T04:59:18;984.88;;;897.50;;
2362;SDS011;1192;51.664;7.626;2022-08-19T05:01:46;977.45;;;890.05;;
2362;SDS011;1192;51.664;7.626;2022-08-19T05:04:15;970.80;;;883.63;;
2362;SDS011;1192;51.664;7.626;2022-08-19T05:06:46;975.92;;;888.60;;
2362;SDS011;1192;51.664;7.626;2022-08-19T05:09:14;968.90;;;882.15;;
2362;SDS011;1192;51.664;7.626;2022-08-19T05:11:42;984.88;;;897.92;;
2362;SDS011;1192;51.664;7.626;2022-08-19T05:14:09;968.78;;;882.30;;
2362;SDS011;1192;51.664;7.626;2022-08-19T05:16:37;977.83;;;891.08;;
2362;SDS011;1192;51.664;7.626;2022-08-19T05:19:05;982.80;;;895.78;;
2362;SDS011;1192;51.664;7.626;2022-08-19T05:21:50;980.75;;;893.60;;
2362;SDS011;1192;51.664;7.626;2022-08-19T05:24:35;981.63;;;894.47;;
2362;SDS011;1192;51.664;7.626;2022-08-19T05:27:02;986.92;;;899.55;;
2362;SDS011;1192;51.664;7.626;2022-08-19T05:29:31;972.30;;;885.40;;
2362;SDS011;1192;51.664;7.626;2022-08-19T05:31:59;979.30;;;892.40;;
2362;SDS011;1192;51.664;7.626;2022-08-19T05:34:26;979.63;;;892.50;;
2362;SDS011;1192;51.664;7.626;2022-08-19T05:36:55;981.03;;;894.42;;
2362;SDS011;1192;51.664;7.626;2022-08-19T05:39:25;979.10;;;892.38;;
2362;SDS011;1192;51.664;7.626;2022-08-19T05:41:54;964.60;;;878.40;;
2362;SDS011;1192;51.664;7.626;2022-08-19T05:44:23;976.42;;;889.80;;
2362;SDS011;1192;51.664;7.626;2022-08-19T05:46:50;975.90;;;889.53;;
2362;SDS011;1192;51.664;7.626;2022-08-19T05:49:19;980.50;;;893.78;;
2362;SDS011;1192;51.664;7.626;2022-08-19T05:51:47;981.80;;;894.97;;
2362;SDS011;1192;51.664;7.626;2022-08-19T05:54:16;990.95;;;904.08;;
2362;SDS011;1192;51.664;7.626;2022-08-19T05:56:43;988.75;;;901.83;;
2362;SDS011;1192;51.664;7.626;2022-08-19T05:59:12;986.83;;;900.13;;
2362;SDS011;1192;51.664;7.626;2022-08-19T06:01:42;983.05;;;895.97;;
2362;SDS011;1192;51.664;7.626;2022-08-19T06:04:10;974.88;;;888.35;;
2362;SDS011;1192;51.664;7.626;2022-08-19T06:06:39;985.95;;;898.88;;
2362;SDS011;1192;51.664;7.626;2022-08-19T06:09:06;989.60;;;902.67;;
2362;SDS011;1192;51.664;7.626;2022-08-19T06:11:38;985.40;;;898.63;;
2362;SDS011;1192;51.664;7.626;2022-08-19T06:14:07;986.72;;;899.75;;
2362;SDS011;1192;51.664;7.626;2022-08-19T06:16:36;977.95;;;891.03;;
2362;SDS011;1192;51.664;7.626;2022-08-19T06:19:04;984.45;;;897.25;;
2362;SDS011;1192;51.664;7.626;2022-08-19T06:21:33;986.92;;;899.70;;
2362;SDS011;1192;51.664;7.626;2022-08-19T06:24:02;990.42;;;902.95;;
2362;SDS011;1192;51.664;7.626;2022-08-19T06:26:31;999.92;;;912.05;;
2362;SDS011;1192;51.664;7.626;2022-08-19T06:29:01;1000.47;;;912.70;;
2362;SDS011;1192;51.664;7.626;2022-08-19T06:31:31;990.90;;;903.38;;
2362;SDS011;1192;51.664;7.626;2022-08-19T06:33:59;1007.85;;;919.65;;
2362;SDS011;1192;51.664;7.626;2022-08-19T06:36:28;1004.85;;;916.97;;
2362;SDS011;1192;51.664;7.626;2022-08-19T06:38:59;991.10;;;903.78;;
2362;SDS011;1192;51.664;7.626;2022-08-19T06:41:26;1003.92;;;916.08;;
2362;SDS011;1192;51.664;7.626;2022-08-19T06:43:55;1001.33;;;913.33;;
2362;SDS011;1192;51.664;7.626;2022-08-19T06:46:23;998.45;;;910.60;;
2362;SDS011;1192;51.664;7.626;2022-08-19T06:48:51;994.42;;;906.65;;
2362;SDS011;1192;51.664;7.626;2022-08-19T06:51:19;981.55;;;894.47;;
2362;SDS011;1192;51.664;7.626;2022-08-19T06:53:46;991.97;;;904.42;;
2362;SDS011;1192;51.664;7.626;2022-08-19T06:56:14;991.03;;;903.35;;
2362;SDS011;1192;51.664;7.626;2022-08-19T06:58:42;987.28;;;899.78;;
2362;SDS011;1192;51.664;7.626;2022-08-19T07:01:09;1004.78;;;916.70;;
2362;SDS011;1192;51.664;7.626;2022-08-19T07:03:38;1003.90;;;915.92;;
2362;SDS011;1192;51.664;7.626;2022-08-19T07:06:06;1011.45;;;922.92;;
2362;SDS011;1192;51.664;7.626;2022-08-19T07:08:35;1022.58;;;933.75;;
2362;SDS011;1192;51.664;7.626;2022-08-19T07:11:02;1029.93;;;941.10;;
2362;SDS011;1192;51.664;7.626;2022-08-19T07:13:32;1022.10;;;933.33;;
2362;SDS011;1192;51.664;7.626;2022-08-19T07:16:02;1026.53;;;937.60;;
2362;SDS011;1192;51.664;7.626;2022-08-19T07:18:30;1038.35;;;949.47;;
2362;SDS011;1192;51.664;7.626;2022-08-19T07:21:03;1026.65;;;937.92;;
2362;SDS011;1192;51.664;7.626;2022-08-19T07:23:30;1042.20;;;952.92;;
2362;SDS011;1192;51.664;7.626;2022-08-19T07:25:57;1046.60;;;957.08;;
2362;SDS011;1192;51.664;7.626;2022-08-19T07:28:24;1045.78;;;956.30;;
2362;SDS011;1192;51.664;7.626;2022-08-19T07:30:51;1046.63;;;956.88;;
2362;SDS011;1192;51.664;7.626;2022-08-19T07:33:18;1033.10;;;944.30;;
2362;SDS011;1192;51.664;7.626;2022-08-19T07:35:45;1051.35;;;961.60;;
2362;SDS011;1192;51.664;7.626;2022-08-19T07:38:13;1054.88;;;965.03;;
2362;SDS011;1192;51.664;7.626;2022-08-19T07:40:40;1041.82;;;952.60;;
2362;SDS011;1192;51.664;7.626;2022-08-19T07:43:08;1045.78;;;956.33;;
2362;SDS011;1192;51.664;7.626;2022-08-19T07:45:35;1032.50;;;943.40;;
2362;SDS011;1192;51.664;7.626;2022-08-19T07:48:02;1033.22;;;944.17;;
2362;SDS011;1192;51.664;7.626;2022-08-19T07:50:29;1032.22;;;943.58;;
2362;SDS011;1192;51.664;7.626;2022-08-19T07:52:56;1036.68;;;947.47;;
2362;SDS011;1192;51.664;7.626;2022-08-19T07:55:25;1042.13;;;952.83;;
2362;SDS011;1192;51.664;7.626;2022-08-19T07:57:52;1041.38;;;952.15;;
2362;SDS011;1192;51.664;7.626;2022-08-19T08:00:19;1049.80;;;960.20;;
2362;SDS011;1192;51.664;7.626;2022-08-19T08:02:46;1055.15;;;965.42;;
2362;SDS011;1192;51.664;7.626;2022-08-19T08:05:13;1049.82;;;960.20;;
2362;SDS011;1192;51.664;7.626;2022-08-19T08:08:09;1051.13;;;961.17;;
2362;SDS011;1192;51.664;7.626;2022-08-19T08:11:02;1042.03;;;952.67;;
2362;SDS011;1192;51.664;7.626;2022-08-19T08:13:29;1054.70;;;964.83;;
2362;SDS011;1192;51.664;7.626;2022-08-19T08:15:58;1063.57;;;973.67;;
2362;SDS011;1192;51.664;7.626;2022-08-19T08:18:24;1070.07;;;979.77;;
2362;SDS011;1192;51.664;7.626;2022-08-19T08:20:52;1064.43;;;974.33;;
2362;SDS011;1192;51.664;7.626;2022-08-19T08:23:20;1070.40;;;980.13;;
2362;SDS011;1192;51.664;7.626;2022-08-19T08:25:50;1069.13;;;978.83;;
2362;SDS011;1192;51.664;7.626;2022-08-19T08:28:21;1070.10;;;979.73;;
2362;SDS011;1192;51.664;7.626;2022-08-19T08:30:48;1074.53;;;984.27;;
2362;SDS011;1192;51.664;7.626;2022-08-19T08:33:17;1086.53;;;995.07;;
2362;SDS011;1192;51.664;7.626;2022-08-19T08:35:45;1080.07;;;989.27;;
2362;SDS011;1192;51.664;7.626;2022-08-19T08:38:12;1083.63;;;992.10;;
2362;SDS011;1192;51.664;7.626;2022-08-19T08:40:42;1078.33;;;987.37;;
2362;SDS011;1192;51.664;7.626;2022-08-19T08:43:18;1083.90;;;992.83;;
2362;SDS011;1192;51.664;7.626;2022-08-19T08:45:51;1088.23;;;995.90;;
2362;SDS011;1192;51.664;7.626;2022-08-19T08:48:24;1094.30;;;998.87;;
2362;SDS011;1192;51.664;7.626;2022-08-19T08:50:58;1093.07;;;998.33;;
2362;SDS011;1192;51.664;7.626;2022-08-19T08:53:29;1091.17;;;997.53;;
2362;SDS011;1192;51.664;7.626;2022-08-19T08:55:58;1089.83;;;996.83;;
2362;SDS011;1192;51.664;7.626;2022-08-19T08:58:29;1087.73;;;995.43;;
2362;SDS011;1192;51.664;7.626;2022-08-19T09:01:11;1097.07;;;999.67;;
2362;SDS011;1192;51.664;7.626;2022-08-19T09:03:38;1102.67;;;999.90;;
2362;SDS011;1192;51.664;7.626;2022-08-19T09:06:11;1094.00;;;998.43;;
2362;SDS011;1192;51.664;7.626;2022-08-19T09:08:44;1114.37;;;999.90;;
2362;SDS011;1192;51.664;7.626;2022-08-19T09:11:15;1108.17;;;999.90;;
2362;SDS011;1192;51.664;7.626;2022-08-19T09:13:53;1114.83;;;999.90;;
2362;SDS011;1192;51.664;7.626;2022-08-19T09:16:30;1103.07;;;999.90;;
2362;SDS011;1192;51.664;7.626;2022-08-19T09:18:58;1103.07;;;999.90;;
2362;SDS011;1192;51.664;7.626;2022-08-19T09:21:29;1102.30;;;999.90;;
2362;SDS011;1192;51.664;7.626;2022-08-19T09:23:56;1092.70;;;998.03;;
2362;SDS011;1192;51.664;7.626;2022-08-19T09:26:23;1105.70;;;999.90;;
2362;SDS011;1192;51.664;7.626;2022-08-19T09:28:52;1101.00;;;999.90;;
2362;SDS011;1192;51.664;7.626;2022-08-19T09:31:21;1112.07;;;999.90;;
2362;SDS011;1192;51.664;7.626;2022-08-19T09:33:49;1091.30;;;997.57;;
2362;SDS011;1192;51.664;7.626;2022-08-19T09:36:18;1087.83;;;995.47;;
2362;SDS011;1192;51.664;7.626;2022-08-19T09:38:47;1095.33;;;999.10;;
2362;SDS011;1192;51.664;7.626;2022-08-19T09:41:15;1095.33;;;999.07;;
2362;SDS011;1192;51.664;7.626;2022-08-19T09:43:45;1091.67;;;997.93;;
2362;SDS011;1192;51.664;7.626;2022-08-19T09:46:14;1092.53;;;998.13;;
2362;SDS011;1192;51.664;7.626;2022-08-19T09:48:43;1082.57;;;991.80;;
2362;SDS011;1192;51.664;7.626;2022-08-19T09:51:14;1079.23;;;988.77;;
2362;SDS011;1192;51.664;7.626;2022-08-19T09:53:42;1089.00;;;996.63;;
2362;SDS011;1192;51.664;7.626;2022-08-19T09:56:10;1084.93;;;993.83;;
2362;SDS011;1192;51.664;7.626;2022-08-19T09:58:39;1095.47;;;999.10;;
2362;SDS011;1192;51.664;7.626;2022-08-19T10:01:06;1090.20;;;997.27;;
2362;SDS011;1192;51.664;7.626;2022-08-19T10:03:35;1097.50;;;999.87;;
2362;SDS011;1192;51.664;7.626;2022-08-19T10:06:04;1102.57;;;999.90;;
2362;SDS011;1192;51.664;7.626;2022-08-19T10:08:32;1096.87;;;999.57;;
2362;SDS011;1192;51.664;7.626;2022-08-19T10:11:02;1088.47;;;995.97;;
2362;SDS011;1192;51.664;7.626;2022-08-19T10:13:30;1091.87;;;997.83;;
2362;SDS011;1192;51.664;7.626;2022-08-19T10:16:03;1105.13;;;999.90;;
2362;SDS011;1192;51.664;7.626;2022-08-19T10:18:32;1098.40;;;999.90;;
2362;SDS011;1192;51.664;7.626;2022-08-19T10:21:06;1092.40;;;998.13;;
2362;SDS011;1192;51.664;7.626;2022-08-19T10:23:35;1095.50;;;999.03;;
2362;SDS011;1192;51.664;7.626;2022-08-19T10:26:03;1096.03;;;999.40;;
2362;SDS011;1192;51.664;7.626;2022-08-19T10:28:31;1090.03;;;997.10;;
2362;SDS011;1192;51.664;7.626;2022-08-19T10:31:03;1083.60;;;992.90;;
2362;SDS011;1192;51.664;7.626;2022-08-19T10:33:31;1085.60;;;994.33;;
2362;SDS011;1192;51.664;7.626;2022-08-19T10:35:59;1095.00;;;998.97;;
2362;SDS011;1192;51.664;7.626;2022-08-19T10:38:27;1090.03;;;997.07;;
2362;SDS011;1192;51.664;7.626;2022-08-19T10:40:54;1093.73;;;998.57;;
2362;SDS011;1192;51.664;7.626;2022-08-19T10:43:21;1100.07;;;999.90;;
2362;SDS011;1192;51.664;7.626;2022-08-19T10:45:51;1102.73;;;999.90;;
2362;SDS011;1192;51.664;7.626;2022-08-19T10:48:19;1103.57;;;999.90;;
2362;SDS011;1192;51.664;7.626;2022-08-19T10:50:46;1101.43;;;999.90;;
2362;SDS011;1192;51.664;7.626;2022-08-19T10:53:32;1093.03;;;998.13;;
2362;SDS011;1192;51.664;7.626;2022-08-19T10:55:58;1097.20;;;999.57;;
2362;SDS011;1192;51.664;7.626;2022-08-19T10:58:43;1092.80;;;998.17;;
2362;SDS011;1192;51.664;7.626;2022-08-19T11:01:09;1094.20;;;998.57;;
2362;SDS011;1192;51.664;7.626;2022-08-19T11:03:36;1108.27;;;999.90;;
2362;SDS011;1192;51.664;7.626;2022-08-19T11:06:04;1096.93;;;999.47;;
2362;SDS011;1192;51.664;7.626;2022-08-19T11:08:34;1092.60;;;998.10;;
2362;SDS011;1192;51.664;7.626;2022-08-19T11:11:02;1087.17;;;995.80;;
2362;SDS011;1192;51.664;7.626;2022-08-19T11:13:31;1093.43;;;998.33;;
2362;SDS011;1192;51.664;7.626;2022-08-19T11:16:03;1095.97;;;999.33;;
2362;SDS011;1192;51.664;7.626;2022-08-19T11:18:33;1076.93;;;986.90;;
2362;SDS011;1192;51.664;7.626;2022-08-19T11:21:05;1084.73;;;993.60;;
2362;SDS011;1192;51.664;7.626;2022-08-19T11:23:35;1082.37;;;992.10;;
2362;SDS011;1192;51.664;7.626;2022-08-19T11:26:01;1098.53;;;999.90;;
2362;SDS011;1192;51.664;7.626;2022-08-19T11:28:28;1086.60;;;994.97;;
2362;SDS011;1192;51.664;7.626;2022-08-19T11:30:55;1092.53;;;998.17;;
2362;SDS011;1192;51.664;7.626;2022-08-19T11:33:22;1086.00;;;995.27;;
2362;SDS011;1192;51.664;7.626;2022-08-19T11:35:51;1093.60;;;998.43;;
2362;SDS011;1192;51.664;7.626;2022-08-19T11:38:18;1095.10;;;999.80;;
2362;SDS011;1192;51.664;7.626;2022-08-19T11:40:53;1089.80;;;997.03;;
2362;SDS011;1192;51.664;7.626;2022-08-19T11:43:20;1094.53;;;998.73;;
2362;SDS011;1192;51.664;7.626;2022-08-19T11:45:47;1094.00;;;998.83;;
2362;SDS011;1192;51.664;7.626;2022-08-19T11:48:14;1087.70;;;996.47;;
2362;SDS011;1192;51.664;7.626;2022-08-19T11:50:40;1097.53;;;999.83;;
2362;SDS011;1192;51.664;7.626;2022-08-19T11:53:08;1099.67;;;999.90;;
2362;SDS011;1192;51.664;7.626;2022-08-19T11:55:36;1092.67;;;998.20;;
2362;SDS011;1192;51.664;7.626;2022-08-19T11:58:05;1090.43;;;997.40;;
2362;SDS011;1192;51.664;7.626;2022-08-19T12:00:32;1093.50;;;998.30;;
2362;SDS011;1192;51.664;7.626;2022-08-19T12:03:01;1094.43;;;998.70;;
2362;SDS011;1192;51.664;7.626;2022-08-19T12:05:28;1093.63;;;998.63;;
2362;SDS011;1192;51.664;7.626;2022-08-19T12:07:55;1087.57;;;995.53;;
2362;SDS011;1192;51.664;7.626;2022-08-19T12:10:22;1088.50;;;996.77;;
2362;SDS011;1192;51.664;7.626;2022-08-19T12:12:49;1084.40;;;993.53;;
2362;SDS011;1192;51.664;7.626;2022-08-19T12:15:17;1098.87;;;999.90;;
2362;SDS011;1192;51.664;7.626;2022-08-19T12:17:44;1095.80;;;999.33;;
2362;SDS011;1192;51.664;7.626;2022-08-19T12:20:12;1086.70;;;995.80;;
2362;SDS011;1192;51.664;7.626;2022-08-19T12:22:40;1087.40;;;995.40;;
2362;SDS011;1192;51.664;7.626;2022-08-19T12:25:08;1107.13;;;999.90;;
2362;SDS011;1192;51.664;7.626;2022-08-19T12:27:36;1089.20;;;996.67;;
2362;SDS011;1192;51.664;7.626;2022-08-19T12:30:04;1102.87;;;999.90;;
2362;SDS011;1192;51.664;7.626;2022-08-19T12:32:33;1100.73;;;999.90;;
2362;SDS011;1192;51.664;7.626;2022-08-19T12:35:00;1094.23;;;998.70;;
2362;SDS011;1192;51.664;7.626;2022-08-19T12:37:27;1100.27;;;999.90;;
2362;SDS011;1192;51.664;7.626;2022-08-19T12:39:56;1099.90;;;999.90;;
2362;SDS011;1192;51.664;7.626;2022-08-19T12:42:23;1090.80;;;997.57;;
2362;SDS011;1192;51.664;7.626;2022-08-19T12:44:50;1095.47;;;998.47;;
2362;SDS011;1192;51.664;7.626;2022-08-19T12:47:17;1096.23;;;999.47;;
2362;SDS011;1192;51.664;7.626;2022-08-19T12:49:46;1098.33;;;999.90;;
2362;SDS011;1192;51.664;7.626;2022-08-19T12:52:14;1098.70;;;999.90;;
2362;SDS011;1192;51.664;7.626;2022-08-19T12:54:41;1086.70;;;995.00;;
2362;SDS011;1192;51.664;7.626;2022-08-19T12:57:09;1093.70;;;998.63;;
2362;SDS011;1192;51.664;7.626;2022-08-19T12:59:37;1093.70;;;998.37;;
2362;SDS011;1192;51.664;7.626;2022-08-19T13:02:04;1083.27;;;992.73;;
2362;SDS011;1192;51.664;7.626;2022-08-19T13:04:32;1090.13;;;997.17;;
2362;SDS011;1192;51.664;7.626;2022-08-19T13:07:02;1087.57;;;995.57;;
2362;SDS011;1192;51.664;7.626;2022-08-19T13:09:30;1100.80;;;999.90;;
2362;SDS011;1192;51.664;7.626;2022-08-19T13:11:56;1097.47;;;999.70;;
2362;SDS011;1192;51.664;7.626;2022-08-19T13:14:25;1103.43;;;999.90;;
2362;SDS011;1192;51.664;7.626;2022-08-19T13:16:51;1095.97;;;999.23;;
2362;SDS011;1192;51.664;7.626;2022-08-19T13:19:18;1102.50;;;999.90;;
2362;SDS011;1192;51.664;7.626;2022-08-19T13:21:48;1095.97;;;999.07;;
2362;SDS011;1192;51.664;7.626;2022-08-19T13:24:17;1097.23;;;999.57;;
2362;SDS011;1192;51.664;7.626;2022-08-19T13:26:44;1104.13;;;999.90;;
2362;SDS011;1192;51.664;7.626;2022-08-19T13:29:10;1103.93;;;999.90;;
2362;SDS011;1192;51.664;7.626;2022-08-19T13:31:55;1108.33;;;999.90;;
2362;SDS011;1192;51.664;7.626;2022-08-19T13:34:39;1096.20;;;999.13;;
2362;SDS011;1192;51.664;7.626;2022-08-19T13:37:05;1102.30;;;999.90;;
2362;SDS011;1192;51.664;7.626;2022-08-19T13:39:34;1100.27;;;999.90;;
2362;SDS011;1192;51.664;7.626;2022-08-19T13:42:01;1097.23;;;999.53;;
2362;SDS011;1192;51.664;7.626;2022-08-19T13:44:29;1108.27;;;999.90;;
2362;SDS011;1192;51.664;7.626;2022-08-19T13:46:59;1111.33;;;999.90;;
2362;SDS011;1192;51.664;7.626;2022-08-19T13:49:30;1101.53;;;999.90;;
2362;SDS011;1192;51.664;7.626;2022-08-19T13:51:57;1096.23;;;999.30;;
2362;SDS011;1192;51.664;7.626;2022-08-19T13:54:24;1105.03;;;999.90;;
2362;SDS011;1192;51.664;7.626;2022-08-19T13:56:53;1113.07;;;999.90;;
2362;SDS011;1192;51.664;7.626;2022-08-19T13:59:20;1111.03;;;999.90;;
2362;SDS011;1192;51.664;7.626;2022-08-19T14:01:46;1112.70;;;999.90;;
2362;SDS011;1192;51.664;7.626;2022-08-19T14:04:13;1105.00;;;999.90;;
2362;SDS011;1192;51.664;7.626;2022-08-19T14:06:40;1110.20;;;999.90;;
2362;SDS011;1192;51.664;7.626;2022-08-19T14:09:06;1117.33;;;999.90;;
2362;SDS011;1192;51.664;7.626;2022-08-19T14:11:33;1115.13;;;999.90;;
2362;SDS011;1192;51.664;7.626;2022-08-19T14:14:01;1121.77;;;999.90;;
2362;SDS011;1192;51.664;7.626;2022-08-19T14:16:28;1113.67;;;999.90;;
2362;SDS011;1192;51.664;7.626;2022-08-19T14:18:55;1117.60;;;999.90;;